Time;durP1;ratioP1;P1;durP2;ratioP2;P2;SDS_P1;SDS_P2;PMS_P1;PMS_P2;Temp;Humidity;BMP_temperature;BMP_pressure;BME280_temperature;BME280_humidity;BME280_pressure;Samples;Min_cycle;Max_cycle;Signal;HPM_P1;HPM_P2
2021/06/24 04:00:46;;;;;;;25.50;9.63;;;16.10;99.90;;;;;;5852065;23;20555;-68
2021/06/24 04:03:13;;;;;;;8.90;8.20;;;16.20;99.90;;;;;;4962965;28;20502;-70
2021/06/24 04:05:40;;;;;;;7.50;6.90;;;16.20;99.90;;;;;;4966648;28;20461;-72
2021/06/24 04:08:09;;;;;;;7.40;6.87;;;16.20;99.90;;;;;;4958320;28;20976;-71
2021/06/24 04:10:37;;;;;;;9.80;7.90;;;16.20;99.90;;;;;;4952973;29;20501;-73
2021/06/24 04:13:03;;;;;;;7.60;6.93;;;16.10;99.90;;;;;;4937231;29;20469;-71
2021/06/24 04:15:31;;;;;;;8.20;7.50;;;16.10;99.90;;;;;;4928807;29;20465;-71
2021/06/24 04:18:00;;;;;;;8.27;7.40;;;16.20;99.90;;;;;;4944714;29;20868;-70
2021/06/24 04:20:27;;;;;;;7.33;6.83;;;16.20;99.90;;;;;;4953047;29;20498;-71
2021/06/24 04:22:53;;;;;;;9.83;7.20;;;16.30;99.90;;;;;;4942703;29;20471;-71
2021/06/24 04:25:20;;;;;;;7.77;7.20;;;16.40;99.90;;;;;;4953471;29;20481;-71
2021/06/24 04:27:47;;;;;;;7.37;6.77;;;16.40;99.90;;;;;;4942015;29;20477;-71
2021/06/24 04:30:15;;;;;;;7.17;6.30;;;16.50;99.90;;;;;;4942750;29;20465;-71
2021/06/24 04:32:42;;;;;;;7.70;7.10;;;16.50;99.90;;;;;;4936191;29;20481;-70
2021/06/24 04:35:12;;;;;;;8.03;7.30;;;16.50;99.90;;;;;;4952801;29;20473;-71
2021/06/24 04:37:39;;;;;;;8.70;6.40;;;16.60;99.90;;;;;;4936322;29;20489;-68
2021/06/24 04:40:09;;;;;;;9.60;7.27;;;16.50;99.90;;;;;;4945789;29;20849;-68
2021/06/24 04:42:35;;;;;;;7.97;7.10;;;16.50;99.90;;;;;;4935521;29;20493;-68
2021/06/24 04:45:03;;;;;;;7.77;7.17;;;16.50;99.90;;;;;;4935080;29;20473;-68
2021/06/24 04:47:29;;;;;;;7.20;6.70;;;16.60;99.90;;;;;;4935161;29;20572;-68
2021/06/24 04:49:56;;;;;;;7.13;6.47;;;16.60;99.90;;;;;;4951217;29;20471;-68
2021/06/24 04:52:24;;;;;;;8.70;7.60;;;16.60;99.90;;;;;;4935928;29;20488;-68
2021/06/24 04:54:51;;;;;;;8.00;7.23;;;16.50;99.90;;;;;;4949902;29;20468;-68
2021/06/24 04:57:17;;;;;;;8.00;7.47;;;16.50;99.90;;;;;;4936791;29;20470;-67
2021/06/24 04:59:44;;;;;;;7.27;6.80;;;16.50;99.90;;;;;;4937255;29;20466;-68
2021/06/24 05:02:11;;;;;;;7.30;6.50;;;16.50;99.90;;;;;;4936639;29;20500;-68
2021/06/24 05:04:38;;;;;;;8.60;7.90;;;16.50;99.90;;;;;;4933709;29;20501;-67
2021/06/24 05:07:08;;;;;;;7.77;7.07;;;16.50;99.90;;;;;;4935434;29;20469;-68
2021/06/24 05:09:39;;;;;;;8.63;7.70;;;16.60;99.90;;;;;;4945422;29;20512;-69
2021/06/24 05:12:07;;;;;;;7.83;7.13;;;16.60;99.90;;;;;;4925855;29;20505;-68
2021/06/24 05:14:34;;;;;;;7.83;7.00;;;16.60;99.90;;;;;;4944890;29;20461;-69
2021/06/24 05:17:00;;;;;;;9.03;7.30;;;16.60;99.90;;;;;;4934947;29;20466;-68
2021/06/24 05:19:27;;;;;;;9.20;7.13;;;16.70;99.90;;;;;;4942960;28;20464;-69
2021/06/24 05:21:54;;;;;;;10.97;7.37;;;16.70;99.90;;;;;;4936015;29;20497;-68
2021/06/24 05:24:21;;;;;;;11.87;7.70;;;16.80;99.90;;;;;;4940585;29;20837;-68
2021/06/24 05:26:49;;;;;;;9.20;8.13;;;16.80;99.90;;;;;;4936811;29;20473;-68
2021/06/24 05:29:16;;;;;;;8.97;8.10;;;16.80;99.90;;;;;;4940415;29;20468;-67
2021/06/24 05:31:43;;;;;;;8.90;7.97;;;16.80;99.90;;;;;;4938788;29;20476;-68
2021/06/24 05:34:10;;;;;;;8.97;8.03;;;16.80;99.90;;;;;;4948369;29;20481;-68
2021/06/24 05:36:37;;;;;;;10.00;8.50;;;16.90;99.90;;;;;;4940291;29;20468;-69
2021/06/24 05:39:05;;;;;;;7.93;7.47;;;16.90;99.90;;;;;;4941124;29;20464;-68
2021/06/24 05:41:32;;;;;;;9.30;8.50;;;16.90;99.90;;;;;;4932696;29;20572;-68
2021/06/24 05:44:00;;;;;;;8.90;8.10;;;16.90;99.90;;;;;;4941393;29;20827;-69
2021/06/24 05:46:28;;;;;;;8.53;7.97;;;17.00;99.90;;;;;;4931975;29;20462;-69
2021/06/24 05:48:54;;;;;;;8.30;7.73;;;17.10;99.90;;;;;;4940487;29;20612;-69
2021/06/24 05:51:23;;;;;;;9.40;8.60;;;17.10;99.90;;;;;;4933301;29;20481;-70
2021/06/24 05:53:49;;;;;;;9.83;8.80;;;17.10;99.90;;;;;;4931394;29;20485;-70
2021/06/24 05:56:16;;;;;;;8.53;7.87;;;17.20;99.90;;;;;;4936580;29;20466;-69
2021/06/24 05:58:43;;;;;;;8.77;7.97;;;17.20;99.90;;;;;;4935673;29;20822;-69
2021/06/24 06:01:11;;;;;;;8.83;8.23;;;17.30;99.90;;;;;;4933613;29;20493;-69
2021/06/24 06:03:38;;;;;;;8.67;7.90;;;17.30;99.90;;;;;;4940241;29;20839;-69
2021/06/24 06:06:05;;;;;;;8.90;8.10;;;17.40;99.90;;;;;;4935525;29;20481;-69
2021/06/24 06:08:32;;;;;;;7.93;7.33;;;17.40;99.90;;;;;;4937908;29;20516;-70
2021/06/24 06:10:58;;;;;;;7.10;6.60;;;17.40;99.90;;;;;;4933646;29;20485;-69
2021/06/24 06:13:25;;;;;;;18.67;16.80;;;17.50;99.90;;;;;;4937955;29;20457;-69
2021/06/24 06:15:53;;;;;;;7.57;6.97;;;17.60;99.90;;;;;;4946415;29;20474;-69
2021/06/24 06:18:23;;;;;;;7.37;6.73;;;17.50;99.90;;;;;;4936125;29;20496;-69
2021/06/24 06:20:50;;;;;;;8.13;7.33;;;17.40;99.90;;;;;;4953333;28;20488;-69
2021/06/24 06:23:19;;;;;;;6.77;6.13;;;17.50;99.90;;;;;;4941602;29;20461;-69
2021/06/24 06:25:45;;;;;;;7.20;6.60;;;17.60;99.90;;;;;;4929951;29;20462;-69
2021/06/24 06:28:13;;;;;;;7.50;7.00;;;17.60;99.90;;;;;;4934621;29;20473;-69
2021/06/24 06:30:39;;;;;;;7.43;6.70;;;17.60;99.90;;;;;;4934234;29;20482;-69
2021/06/24 06:33:06;;;;;;;6.87;6.43;;;17.70;99.90;;;;;;4943971;29;20460;-69
2021/06/24 06:35:34;;;;;;;7.27;6.70;;;17.60;99.90;;;;;;4940500;29;20462;-69
2021/06/24 06:38:01;;;;;;;8.63;7.20;;;17.60;99.90;;;;;;4943835;29;20618;-69
2021/06/24 06:40:28;;;;;;;7.17;6.63;;;17.60;99.90;;;;;;4941757;29;20516;-69
2021/06/24 06:42:56;;;;;;;7.00;6.30;;;17.70;99.90;;;;;;4935079;29;20500;-69
2021/06/24 06:45:24;;;;;;;7.80;7.17;;;17.70;99.90;;;;;;4937048;29;20473;-70
2021/06/24 06:47:51;;;;;;;6.40;6.10;;;17.80;99.90;;;;;;4936105;29;20457;-69
2021/06/24 06:50:18;;;;;;;7.47;6.67;;;17.90;99.90;;;;;;4937379;29;20576;-69
2021/06/24 06:52:46;;;;;;;5.70;5.40;;;18.00;99.90;;;;;;4955728;29;20461;-69
2021/06/24 06:55:14;;;;;;;7.30;6.60;;;18.00;99.90;;;;;;4944066;29;20465;-69
2021/06/24 06:57:41;;;;;;;6.77;6.07;;;18.00;99.90;;;;;;4937045;29;20485;-69
2021/06/24 07:00:10;;;;;;;7.30;6.70;;;18.10;99.90;;;;;;4935492;29;20484;-71
2021/06/24 07:02:36;;;;;;;6.83;6.20;;;18.20;99.90;;;;;;4944755;29;20560;-69
2021/06/24 07:05:04;;;;;;;5.90;5.30;;;18.30;99.90;;;;;;4935858;29;20490;-69
2021/06/24 07:07:31;;;;;;;8.40;7.60;;;18.20;99.90;;;;;;4951330;29;20575;-69
2021/06/24 07:09:59;;;;;;;6.60;5.07;;;18.00;99.90;;;;;;4950384;29;20462;-69
2021/06/24 07:12:26;;;;;;;5.03;4.40;;;18.10;99.90;;;;;;4950180;29;20485;-69
2021/06/24 07:14:52;;;;;;;5.80;4.73;;;18.10;99.90;;;;;;4937355;29;20466;-69
2021/06/24 07:17:19;;;;;;;4.73;4.50;;;18.20;99.90;;;;;;4939628;29;20461;-68
2021/06/24 07:19:46;;;;;;;5.97;5.60;;;18.20;99.90;;;;;;4935517;29;20485;-68
2021/06/24 07:22:12;;;;;;;5.00;4.70;;;18.20;99.90;;;;;;4936774;29;20491;-67
2021/06/24 07:24:39;;;;;;;4.83;4.50;;;18.30;99.90;;;;;;4936034;29;20800;-69
2021/06/24 07:27:18;;;;;;;5.27;4.90;;;18.40;99.90;;;;;;4944448;29;20472;-68
2021/06/24 07:29:44;;;;;;;5.70;5.30;;;18.60;99.90;;;;;;4935165;29;20464;-70
2021/06/24 07:32:12;;;;;;;7.20;5.40;;;18.60;99.90;;;;;;4947997;29;20848;-72
2021/06/24 07:34:39;;;;;;;5.50;5.17;;;18.60;99.90;;;;;;4936316;29;20465;-71
2021/06/24 07:37:05;;;;;;;5.97;5.37;;;18.60;99.90;;;;;;4936599;29;20461;-71
2021/06/24 07:39:32;;;;;;;6.20;5.60;;;18.70;99.90;;;;;;4936204;29;20472;-71
2021/06/24 07:41:59;;;;;;;5.97;5.47;;;18.80;99.90;;;;;;4935936;29;20837;-70
2021/06/24 07:44:27;;;;;;;5.60;5.10;;;18.90;99.90;;;;;;4935897;29;20465;-71
2021/06/24 07:46:53;;;;;;;6.37;5.10;;;18.90;99.90;;;;;;4936358;29;20830;-71
2021/06/24 07:49:20;;;;;;;5.17;4.87;;;19.00;99.90;;;;;;4936493;29;20557;-70
2021/06/24 07:51:46;;;;;;;5.40;4.80;;;19.20;99.90;;;;;;4935739;29;20485;-71
2021/06/24 07:54:13;;;;;;;5.57;5.13;;;19.40;99.90;;;;;;4935887;29;20472;-71
2021/06/24 07:56:40;;;;;;;5.13;4.93;;;19.50;99.90;;;;;;4935748;29;20466;-71
2021/06/24 07:59:11;;;;;;;5.43;4.93;;;19.70;99.90;;;;;;4936458;29;20473;-71
2021/06/24 08:01:39;;;;;;;4.67;4.33;;;19.70;99.90;;;;;;4936403;29;20497;-71
2021/06/24 08:04:06;;;;;;;4.60;4.40;;;19.80;99.90;;;;;;4934331;29;20492;-72
2021/06/24 08:06:33;;;;;;;5.73;4.80;;;19.90;99.90;;;;;;4936444;29;20470;-71
2021/06/24 08:09:00;;;;;;;5.00;4.57;;;20.10;99.90;;;;;;4935274;29;20461;-70
2021/06/24 08:11:26;;;;;;;6.40;5.40;;;20.10;99.90;;;;;;4935542;29;20489;-72
2021/06/24 08:13:53;;;;;;;5.20;4.80;;;20.20;99.90;;;;;;4936015;29;20813;-73
2021/06/24 08:16:20;;;;;;;7.47;4.60;;;20.20;99.90;;;;;;4935755;29;20481;-70
2021/06/24 08:18:48;;;;;;;5.30;5.07;;;20.40;99.90;;;;;;4935864;29;20480;-70
2021/06/24 08:21:14;;;;;;;4.60;4.40;;;20.40;99.90;;;;;;4935546;29;20540;-73
2021/06/24 08:23:41;;;;;;;5.77;4.83;;;20.60;99.90;;;;;;4935533;29;20600;-73
2021/06/24 08:26:08;;;;;;;7.47;5.47;;;20.60;99.90;;;;;;4935676;29;20852;-70
2021/06/24 08:28:34;;;;;;;5.77;4.80;;;20.60;99.90;;;;;;4935875;29;20548;-71
2021/06/24 08:31:01;;;;;;;6.10;4.87;;;20.80;99.90;;;;;;4936017;29;20500;-70
2021/06/24 08:33:28;;;;;;;9.80;5.13;;;20.80;99.90;;;;;;4935196;29;20465;-70
2021/06/24 08:35:56;;;;;;;5.63;5.30;;;20.70;99.90;;;;;;4935890;29;20466;-70
2021/06/24 08:38:22;;;;;;;4.67;4.27;;;20.70;99.90;;;;;;4935386;29;20462;-70
2021/06/24 08:40:49;;;;;;;5.67;5.27;;;20.80;99.90;;;;;;4935073;29;20838;-71
2021/06/24 08:43:16;;;;;;;4.90;4.60;;;20.70;99.90;;;;;;4916708;29;20489;-71
2021/06/24 08:45:43;;;;;;;5.93;5.30;;;20.70;99.90;;;;;;4916487;29;20476;-70
2021/06/24 08:48:13;;;;;;;6.13;5.33;;;20.70;99.90;;;;;;4916557;29;20968;-69
2021/06/24 08:50:43;;;;;;;5.80;5.00;;;20.80;99.90;;;;;;4916559;29;20997;-71
2021/06/24 08:53:11;;;;;;;6.40;4.87;;;20.80;99.90;;;;;;4916060;29;20478;-71
2021/06/24 08:55:41;;;;;;;5.77;5.37;;;20.70;99.90;;;;;;4933740;29;20497;-71
2021/06/24 08:58:08;;;;;;;5.27;4.23;;;20.80;99.90;;;;;;4935325;29;20528;-70
2021/06/24 09:00:35;;;;;;;6.07;5.47;;;20.80;99.90;;;;;;4935275;29;20522;-71
2021/06/24 09:03:15;;;;;;;8.07;5.50;;;20.90;99.90;;;;;;4935430;29;20493;-71
2021/06/24 09:05:51;;;;;;;6.10;5.47;;;20.90;99.90;;;;;;4935438;29;20517;-71
2021/06/24 09:08:27;;;;;;;6.13;5.73;;;21.00;99.90;;;;;;4934771;29;20473;-71
2021/06/24 09:11:14;;;;;;;5.27;5.07;;;21.00;99.90;;;;;;4934736;29;20592;-71
2021/06/24 09:13:42;;;;;;;6.00;5.50;;;21.20;99.90;;;;;;4930297;29;20462;-71
2021/06/24 09:16:24;;;;;;;5.03;4.73;;;21.50;99.90;;;;;;4935390;29;20468;-72
2021/06/24 09:18:51;;;;;;;4.90;4.70;;;21.30;99.90;;;;;;4935500;29;20473;-72
2021/06/24 09:21:22;;;;;;;5.63;5.20;;;21.30;99.90;;;;;;4934922;29;20844;-71
2021/06/24 09:23:52;;;;;;;5.27;4.83;;;21.10;99.90;;;;;;4934799;29;20493;-72
2021/06/24 09:26:20;;;;;;;5.20;4.90;;;21.20;99.90;;;;;;4934426;29;20469;-71
2021/06/24 09:28:49;;;;;;;5.03;4.53;;;21.60;99.90;;;;;;4935430;29;20470;-72
2021/06/24 09:31:25;;;;;;;4.67;4.47;;;21.80;99.90;;;;;;4936116;29;20491;-71
2021/06/24 09:33:52;;;;;;;4.90;4.60;;;22.20;99.90;;;;;;4934731;29;20782;-71
2021/06/24 09:36:36;;;;;;;5.23;4.83;;;22.10;99.90;;;;;;4934605;29;20470;-72
2021/06/24 09:39:07;;;;;;;5.70;5.20;;;22.10;99.90;;;;;;4934510;29;20469;-71
2021/06/24 09:41:34;;;;;;;4.57;4.33;;;22.20;99.90;;;;;;4934362;29;20529;-71
2021/06/24 09:44:18;;;;;;;5.67;5.13;;;22.00;99.90;;;;;;4934284;29;20477;-70
2021/06/24 09:46:45;;;;;;;4.70;4.40;;;22.20;99.90;;;;;;4934920;29;20501;-71
2021/06/24 09:49:12;;;;;;;5.60;5.20;;;22.50;99.90;;;;;;4934853;29;20466;-71
2021/06/24 09:51:38;;;;;;;4.50;4.30;;;22.80;99.90;;;;;;4935138;29;20493;-71
2021/06/24 09:54:09;;;;;;;5.23;4.70;;;23.10;99.90;;;;;;4934630;29;20461;-71
2021/06/24 09:56:42;;;;;;;4.20;3.90;;;22.60;99.90;;;;;;4934411;29;20840;-71
2021/06/24 09:59:09;;;;;;;4.50;4.23;;;22.80;99.90;;;;;;4934296;29;20500;-71
2021/06/24 10:01:38;;;;;;;3.97;3.77;;;23.00;99.90;;;;;;4934797;29;20501;-71
2021/06/24 10:04:16;;;;;;;4.00;3.80;;;23.10;99.90;;;;;;4926773;29;20580;-71
2021/06/24 10:06:43;;;;;;;6.67;4.17;;;22.70;99.90;;;;;;4936473;29;20941;-70
2021/06/24 10:09:12;;;;;;;4.83;4.60;;;22.60;99.90;;;;;;4937915;29;20466;-71
2021/06/24 10:11:39;;;;;;;5.23;5.03;;;22.50;99.90;;;;;;4937771;29;20500;-71
2021/06/24 10:14:07;;;;;;;4.73;4.40;;;22.50;99.90;;;;;;4938003;29;20462;-71
2021/06/24 10:16:35;;;;;;;4.67;4.37;;;22.70;99.90;;;;;;4938585;29;20812;-70
2021/06/24 10:19:03;;;;;;;4.60;4.40;;;22.90;99.90;;;;;;4938506;29;20524;-70
2021/06/24 10:21:34;;;;;;;4.97;4.77;;;23.00;99.90;;;;;;4938023;29;20485;-70
2021/06/24 10:24:04;;;;;;;4.27;4.00;;;23.10;99.90;;;;;;4937119;29;20501;-70
2021/06/24 10:26:33;;;;;;;4.37;4.07;;;23.30;99.90;;;;;;4937735;29;20461;-71
2021/06/24 10:29:10;;;;;;;4.83;4.50;;;23.50;99.90;;;;;;4938184;29;20584;-70
2021/06/24 10:31:38;;;;;;;3.87;3.77;;;23.70;99.90;;;;;;4937422;29;20488;-70
2021/06/24 10:34:05;;;;;;;3.90;3.70;;;23.50;99.90;;;;;;4937425;29;20461;-69
2021/06/24 10:36:33;;;;;;;3.87;3.77;;;23.70;99.90;;;;;;4938307;29;20465;-70
2021/06/24 10:39:02;;;;;;;3.57;3.47;;;23.70;99.90;;;;;;4937017;29;21024;-70
2021/06/24 10:41:29;;;;;;;3.70;3.60;;;23.70;99.90;;;;;;4933378;29;20490;-70
2021/06/24 10:43:57;;;;;;;4.20;4.00;;;23.70;99.90;;;;;;4918417;29;20490;-70
2021/06/24 10:46:25;;;;;;;3.80;3.47;;;23.90;99.90;;;;;;4923097;29;20497;-68
2021/06/24 10:48:52;;;;;;;4.10;4.00;;;23.90;99.90;;;;;;4937134;29;20488;-68
2021/06/24 10:51:32;;;;;;;4.70;4.50;;;23.50;99.90;;;;;;4937710;29;20512;-68
2021/06/24 10:53:58;;;;;;;5.20;5.00;;;23.70;99.90;;;;;;4936994;29;20828;-68
2021/06/24 10:56:46;;;;;;;4.23;4.00;;;23.60;99.90;;;;;;4937475;29;20786;-68
2021/06/24 10:59:31;;;;;;;4.63;4.33;;;23.70;99.90;;;;;;4937197;29;20480;-68
2021/06/24 11:02:12;;;;;;;4.57;4.37;;;23.70;99.90;;;;;;4937148;29;20544;-68
2021/06/24 11:04:44;;;;;;;4.57;4.30;;;23.60;99.90;;;;;;4918377;29;20514;-68
2021/06/24 11:07:35;;;;;;;4.23;4.00;;;23.30;99.90;;;;;;4919166;29;20481;-68
2021/06/24 11:10:23;;;;;;;5.27;4.87;;;23.40;99.90;;;;;;4917333;29;20482;-68
2021/06/24 11:13:02;;;;;;;4.73;4.63;;;23.40;99.90;;;;;;4918610;29;20461;-68
2021/06/24 11:16:00;;;;;;;5.30;5.00;;;23.40;99.90;;;;;;4933338;29;20469;-68
2021/06/24 11:18:56;;;;;;;4.67;4.47;;;23.60;99.90;;;;;;4898762;29;20485;-68
2021/06/24 11:21:53;;;;;;;5.40;5.20;;;23.70;99.90;;;;;;4935641;29;20498;-68
2021/06/24 11:24:25;;;;;;;4.53;4.33;;;23.60;99.90;;;;;;4934067;29;20500;-68
2021/06/24 11:26:54;;;;;;;4.67;4.40;;;23.80;99.90;;;;;;4936918;29;20489;-68
2021/06/24 11:29:27;;;;;;;5.00;4.80;;;24.10;99.90;;;;;;4937521;29;20831;-67
2021/06/24 11:31:58;;;;;;;4.47;4.27;;;24.40;99.90;;;;;;4937269;29;20525;-69
2021/06/24 11:34:34;;;;;;;4.70;4.50;;;24.10;99.90;;;;;;4936278;29;20474;-68
2021/06/24 11:37:03;;;;;;;5.53;5.33;;;23.90;99.90;;;;;;4936718;29;20473;-68
2021/06/24 11:39:33;;;;;;;4.77;4.57;;;23.70;99.90;;;;;;4936490;29;20462;-67
2021/06/24 11:42:02;;;;;;;5.80;5.30;;;23.70;99.90;;;;;;4936450;29;20540;-68
2021/06/24 11:44:32;;;;;;;4.90;4.60;;;23.50;99.90;;;;;;4936500;29;20488;-69
2021/06/24 11:47:05;;;;;;;4.17;3.90;;;23.60;99.90;;;;;;4935266;29;20457;-68
2021/06/24 12:01:34;;;;;;;4.70;4.50;;;23.00;99.90;;;;;;4925822;29;20913;-69
2021/06/24 12:04:02;;;;;;;4.90;4.70;;;22.90;99.90;;;;;;4936225;29;20622;-69
2021/06/24 12:06:41;;;;;;;4.60;4.40;;;22.90;99.90;;;;;;4936653;29;20469;-68
2021/06/24 12:09:08;;;;;;;4.90;4.60;;;22.90;99.90;;;;;;4935894;29;20828;-68
2021/06/24 12:11:36;;;;;;;5.30;4.90;;;22.80;99.90;;;;;;4938929;29;20487;-69
2021/06/24 12:14:15;;;;;;;5.20;4.90;;;22.80;99.90;;;;;;4939249;29;20812;-69
2021/06/24 12:16:42;;;;;;;4.90;4.50;;;22.80;99.90;;;;;;4939663;29;20563;-68
2021/06/24 12:19:11;;;;;;;5.10;4.90;;;22.70;99.90;;;;;;4954812;29;21167;-68
2021/06/24 12:21:38;;;;;;;5.27;4.87;;;22.60;99.90;;;;;;4946855;28;20504;-69
2021/06/24 12:24:05;;;;;;;5.37;4.97;;;22.50;99.90;;;;;;4932472;29;20489;-68
2021/06/24 12:26:32;;;;;;;4.10;4.00;;;22.40;99.90;;;;;;4937380;29;20473;-68
2021/06/24 12:29:03;;;;;;;4.10;3.80;;;22.30;99.90;;;;;;4935713;29;20462;-68
2021/06/24 12:31:32;;;;;;;3.73;3.57;;;22.20;99.90;;;;;;4947356;28;20493;-68
2021/06/24 12:34:05;;;;;;;3.57;3.37;;;22.00;99.90;;;;;;4936556;29;20457;-68
2021/06/24 12:36:35;;;;;;;3.80;3.70;;;21.90;99.90;;;;;;4931946;29;20465;-68
2021/06/24 12:39:01;;;;;;;3.73;3.63;;;21.80;99.90;;;;;;4938499;29;20484;-68
2021/06/24 12:41:29;;;;;;;4.10;3.80;;;21.60;99.90;;;;;;4937480;29;20489;-67
2021/06/24 12:44:00;;;;;;;3.40;3.20;;;21.50;99.90;;;;;;4949213;29;21027;-67
2021/06/24 12:46:31;;;;;;;3.80;3.60;;;21.40;99.90;;;;;;4924234;29;20549;-68
2021/06/24 12:49:03;;;;;;;4.00;3.90;;;21.40;99.90;;;;;;4951711;29;20949;-68
2021/06/24 12:51:30;;;;;;;4.30;4.07;;;21.40;99.90;;;;;;4942450;29;20489;-68
2021/06/24 12:53:58;;;;;;;4.60;4.50;;;21.30;99.90;;;;;;4934776;29;20462;-69
2021/06/24 12:56:27;;;;;;;3.90;3.70;;;21.30;99.90;;;;;;4937804;29;20470;-68
2021/06/24 12:58:55;;;;;;;4.40;4.30;;;21.40;99.90;;;;;;4934883;29;20805;-68
2021/06/24 13:01:22;;;;;;;5.20;4.70;;;21.40;99.90;;;;;;4943930;28;20507;-71
2021/06/24 13:03:51;;;;;;;4.20;4.00;;;21.50;99.90;;;;;;4946074;29;20508;-68
2021/06/24 13:06:21;;;;;;;4.30;4.10;;;21.40;99.90;;;;;;4935589;29;20560;-69
2021/06/24 13:09:00;;;;;;;4.13;3.93;;;21.50;99.90;;;;;;4937588;29;20823;-68
2021/06/24 13:11:29;;;;;;;4.67;4.57;;;21.40;99.90;;;;;;4934750;29;20493;-68
2021/06/24 13:13:58;;;;;;;3.97;3.77;;;21.50;99.90;;;;;;4941592;29;20480;-68
2021/06/24 13:16:29;;;;;;;3.83;3.50;;;21.60;99.90;;;;;;4946595;29;20465;-68
2021/06/24 13:18:57;;;;;;;4.23;4.13;;;21.60;99.90;;;;;;4938120;29;20476;-68
2021/06/24 13:21:24;;;;;;;4.40;4.20;;;21.70;99.90;;;;;;4935010;29;20512;-68
2021/06/24 13:24:04;;;;;;;5.23;5.07;;;21.80;99.90;;;;;;4939612;29;20850;-68
2021/06/24 13:26:32;;;;;;;4.80;4.50;;;21.90;99.90;;;;;;4931316;29;20453;-69
2021/06/24 13:29:00;;;;;;;4.77;4.67;;;22.00;99.90;;;;;;4951402;29;20465;-69
2021/06/24 13:31:28;;;;;;;5.50;5.30;;;22.20;99.90;;;;;;4934845;29;20498;-70
2021/06/24 13:34:01;;;;;;;5.20;4.90;;;22.30;99.90;;;;;;4933342;29;20465;-69
2021/06/24 13:36:29;;;;;;;4.33;4.20;;;22.30;99.90;;;;;;4934492;29;20462;-69
2021/06/24 13:38:58;;;;;;;4.17;4.07;;;22.40;99.90;;;;;;4933953;29;20461;-69
2021/06/24 13:41:28;;;;;;;4.73;4.60;;;22.50;99.90;;;;;;4936170;29;20970;-69
2021/06/24 13:44:13;;;;;;;6.10;5.67;;;22.70;99.90;;;;;;4937624;29;20508;-69
2021/06/24 13:46:42;;;;;;;4.93;4.60;;;22.80;99.90;;;;;;4938551;29;20468;-68
2021/06/24 13:49:09;;;;;;;4.93;4.73;;;22.70;99.90;;;;;;4938598;29;20468;-69
2021/06/24 13:51:36;;;;;;;4.50;4.40;;;22.50;99.90;;;;;;4937136;29;20566;-69
2021/06/24 13:54:05;;;;;;;5.10;4.90;;;22.40;99.90;;;;;;4951634;29;20456;-69
2021/06/24 13:56:31;;;;;;;5.20;4.90;;;22.30;99.90;;;;;;4940956;29;20985;-70
2021/06/24 13:58:58;;;;;;;4.70;4.50;;;22.30;99.90;;;;;;4947350;29;20461;-69
2021/06/24 14:01:28;;;;;;;6.47;6.10;;;22.20;99.90;;;;;;4937048;29;20493;-68
2021/06/24 14:03:55;;;;;;;4.97;4.77;;;22.00;99.90;;;;;;4930733;29;20498;-70
2021/06/24 14:06:24;;;;;;;6.77;6.27;;;22.00;99.90;;;;;;4934286;29;20461;-70
2021/06/24 14:08:51;;;;;;;5.10;5.00;;;22.00;99.90;;;;;;4935849;29;20472;-69
2021/06/24 14:11:18;;;;;;;6.00;5.60;;;22.00;99.90;;;;;;4937484;29;20490;-69
2021/06/24 14:13:47;;;;;;;6.13;4.97;;;22.10;99.90;;;;;;4939937;29;20469;-69
2021/06/24 14:16:15;;;;;;;5.30;4.90;;;22.00;99.90;;;;;;4938195;29;20465;-69
2021/06/24 14:18:44;;;;;;;5.47;5.07;;;22.00;99.90;;;;;;4944325;29;20486;-69
2021/06/24 14:21:12;;;;;;;6.83;6.33;;;22.00;99.90;;;;;;4937709;29;20498;-69
2021/06/24 14:23:39;;;;;;;5.80;5.40;;;21.90;99.90;;;;;;4934214;29;20822;-71
2021/06/24 14:26:06;;;;;;;5.50;5.20;;;21.90;99.90;;;;;;4933748;29;20489;-71
2021/06/24 14:28:34;;;;;;;5.50;5.20;;;21.90;99.90;;;;;;4939050;29;20469;-71
2021/06/24 14:31:01;;;;;;;5.00;4.70;;;21.90;99.90;;;;;;4938109;29;20482;-71
2021/06/24 14:33:29;;;;;;;5.20;4.90;;;22.00;99.90;;;;;;4932819;29;20496;-70
2021/06/24 14:35:57;;;;;;;4.87;4.67;;;22.10;99.90;;;;;;4924916;29;20873;-72
2021/06/24 14:38:24;;;;;;;5.33;5.03;;;22.20;99.90;;;;;;4936520;29;20485;-71
2021/06/24 14:40:51;;;;;;;5.00;4.80;;;22.20;99.90;;;;;;4935540;29;20496;-71
2021/06/24 14:43:18;;;;;;;4.53;4.33;;;22.00;99.90;;;;;;4935961;29;20476;-72
2021/06/24 14:45:45;;;;;;;5.47;5.17;;;21.90;99.90;;;;;;4936386;29;20524;-72
2021/06/24 14:48:11;;;;;;;5.77;5.10;;;21.90;99.90;;;;;;4946612;29;20887;-72
2021/06/24 14:50:38;;;;;;;6.53;6.03;;;22.00;99.90;;;;;;4950392;28;20616;-72
2021/06/24 14:53:06;;;;;;;4.93;4.73;;;21.90;99.90;;;;;;4940639;29;20465;-72
2021/06/24 14:55:35;;;;;;;6.00;5.53;;;21.90;99.90;;;;;;4956285;29;20460;-72
2021/06/24 14:58:02;;;;;;;6.00;5.70;;;22.00;99.90;;;;;;4949625;29;20456;-72
2021/06/24 15:00:29;;;;;;;5.53;5.20;;;22.10;99.90;;;;;;4956835;28;20492;-73
2021/06/24 15:02:56;;;;;;;4.87;4.70;;;22.10;99.90;;;;;;4950335;29;20456;-72
2021/06/24 15:05:23;;;;;;;4.67;4.47;;;22.10;99.90;;;;;;4956459;29;20623;-72
2021/06/24 15:07:50;;;;;;;4.30;4.10;;;22.10;99.90;;;;;;4934977;29;20482;-72
2021/06/24 15:10:20;;;;;;;5.40;5.10;;;22.00;99.90;;;;;;4935709;29;21001;-72
2021/06/24 15:12:47;;;;;;;5.70;5.30;;;22.00;99.90;;;;;;4937263;29;20462;-71
2021/06/24 15:15:14;;;;;;;5.70;5.27;;;21.90;99.90;;;;;;4942891;29;20552;-71
2021/06/24 15:17:41;;;;;;;4.20;4.07;;;22.00;99.90;;;;;;4934333;29;20571;-71
2021/06/24 15:20:12;;;;;;;5.03;4.63;;;21.90;99.90;;;;;;4944972;29;20469;-70
2021/06/24 15:22:39;;;;;;;4.63;4.43;;;21.90;99.90;;;;;;4942408;29;20748;-71
2021/06/24 15:25:07;;;;;;;4.80;4.60;;;22.00;99.90;;;;;;4940457;29;20496;-72
2021/06/24 15:27:35;;;;;;;5.03;4.90;;;22.00;99.90;;;;;;4935725;29;20477;-72
2021/06/24 15:30:02;;;;;;;4.33;4.23;;;22.00;99.90;;;;;;4937998;29;20454;-72
2021/06/24 15:32:28;;;;;;;4.80;4.63;;;22.00;99.90;;;;;;4928418;29;20494;-72
2021/06/24 15:34:55;;;;;;;5.20;4.90;;;22.20;99.90;;;;;;4922538;29;20969;-71
2021/06/24 15:37:22;;;;;;;5.07;4.77;;;22.20;99.90;;;;;;4934815;29;20466;-68
2021/06/24 15:39:49;;;;;;;5.33;5.03;;;22.20;99.90;;;;;;4935199;29;20469;-68
2021/06/24 15:42:15;;;;;;;5.30;5.07;;;22.20;99.90;;;;;;4930923;29;20573;-68
2021/06/24 15:44:43;;;;;;;4.70;4.43;;;22.20;99.90;;;;;;4934640;29;20864;-68
2021/06/24 15:47:10;;;;;;;5.70;5.40;;;22.20;99.90;;;;;;4935007;29;20473;-68
2021/06/24 15:49:37;;;;;;;5.70;5.40;;;22.20;99.90;;;;;;4936716;29;20473;-68
2021/06/24 15:52:04;;;;;;;5.20;4.90;;;22.00;99.90;;;;;;4936311;29;20489;-69
2021/06/24 15:54:31;;;;;;;6.10;4.37;;;22.00;99.90;;;;;;4932770;29;20484;-67
2021/06/24 15:56:58;;;;;;;5.47;5.27;;;21.90;99.90;;;;;;4934543;29;20848;-69
2021/06/24 15:59:24;;;;;;;6.63;6.23;;;21.90;99.90;;;;;;4936186;29;20469;-69
2021/06/24 16:01:52;;;;;;;8.37;7.90;;;21.90;99.90;;;;;;4934969;29;20515;-68
2021/06/24 16:04:20;;;;;;;8.10;7.40;;;21.80;99.90;;;;;;4931461;29;20496;-68
2021/06/24 16:06:46;;;;;;;8.17;7.50;;;21.70;99.90;;;;;;4935925;29;20571;-68
2021/06/24 16:09:13;;;;;;;7.10;6.70;;;21.60;99.90;;;;;;4933516;29;20862;-69
2021/06/24 16:11:40;;;;;;;8.77;7.53;;;21.60;99.90;;;;;;4935738;29;20604;-68
2021/06/24 16:14:07;;;;;;;6.90;6.50;;;21.60;99.90;;;;;;4931991;29;20462;-68
2021/06/24 16:16:34;;;;;;;5.73;5.43;;;21.60;99.90;;;;;;4935372;29;21001;-68
2021/06/24 16:19:03;;;;;;;5.60;5.17;;;21.60;99.90;;;;;;4935326;29;20450;-68
2021/06/24 16:21:30;;;;;;;6.57;6.27;;;21.60;99.90;;;;;;4932371;29;20552;-68
2021/06/24 16:23:57;;;;;;;6.63;5.40;;;21.60;99.90;;;;;;4934573;29;20473;-68
2021/06/24 16:26:23;;;;;;;7.40;7.00;;;21.60;99.90;;;;;;4935506;29;20848;-67
2021/06/24 16:28:50;;;;;;;5.90;5.50;;;21.60;99.90;;;;;;4935366;29;20478;-68
2021/06/24 16:31:17;;;;;;;5.80;5.50;;;21.60;99.90;;;;;;4935768;29;20520;-67
2021/06/24 16:33:44;;;;;;;6.13;5.67;;;21.50;99.90;;;;;;4934803;29;20477;-67
2021/06/24 16:36:12;;;;;;;5.93;5.50;;;21.60;99.90;;;;;;4934415;29;20453;-67
2021/06/24 16:38:39;;;;;;;6.63;6.30;;;21.50;99.90;;;;;;4934378;29;20488;-68
2021/06/24 16:41:05;;;;;;;6.10;5.50;;;21.50;99.90;;;;;;4934764;29;20496;-67
2021/06/24 16:43:32;;;;;;;6.00;5.80;;;21.60;99.90;;;;;;4935129;29;20476;-67
2021/06/24 16:45:59;;;;;;;6.23;5.83;;;21.60;99.90;;;;;;4935054;29;20490;-68
2021/06/24 16:48:25;;;;;;;6.47;6.00;;;21.60;99.90;;;;;;4935317;29;20875;-67
2021/06/24 16:50:56;;;;;;;5.67;5.33;;;21.60;99.90;;;;;;4930442;29;20624;-67
2021/06/24 16:53:24;;;;;;;5.63;5.43;;;21.60;99.90;;;;;;4931920;29;20493;-66
2021/06/24 16:55:50;;;;;;;5.30;5.10;;;21.60;99.90;;;;;;4934472;29;20814;-67
2021/06/24 16:58:19;;;;;;;5.77;5.47;;;21.50;99.90;;;;;;4935204;29;20470;-67
2021/06/24 17:00:46;;;;;;;6.23;5.73;;;21.50;99.90;;;;;;4935048;29;20754;-67
2021/06/24 17:03:13;;;;;;;5.37;5.07;;;21.50;99.90;;;;;;4934471;29;20485;-68
2021/06/24 17:05:40;;;;;;;5.50;5.20;;;21.40;99.90;;;;;;4934210;29;20985;-68